createdAt,value
2022-09-17T00:02:31.504Z,24.94
2022-09-17T00:07:31.034Z,24.92
2022-09-17T00:12:50.147Z,24.70
2022-09-17T00:17:47.450Z,24.74
2022-09-17T00:22:44.619Z,24.71
2022-09-17T00:27:41.840Z,25.01
2022-09-17T00:32:39.945Z,25.34
2022-09-17T00:37:37.132Z,25.36
2022-09-17T00:42:34.203Z,24.87
2022-09-17T00:47:35.073Z,25.27
2022-09-17T00:52:36.686Z,25.06
2022-09-17T00:57:35.581Z,25.16
2022-09-17T01:02:36.817Z,25.23
2022-09-17T01:07:49.003Z,25.01
2022-09-17T01:19:43.699Z,24.88
2022-09-17T01:25:28.681Z,24.73
2022-09-17T01:31:14.499Z,25.21
2022-09-17T01:36:32.364Z,25.19
2022-09-17T01:41:45.044Z,24.84
2022-09-17T01:46:46.776Z,25.10
2022-09-17T01:51:48.579Z,25.31
2022-09-17T01:56:52.307Z,25.10
2022-09-17T02:02:20.085Z,25.12
2022-09-17T02:07:20.911Z,24.92
2022-09-17T02:12:32.450Z,25.02
2022-09-17T02:17:35.306Z,24.61
2022-09-17T02:22:39.682Z,24.86
2022-09-17T02:27:44.687Z,24.57
2022-09-17T02:32:42.744Z,24.39
2022-09-17T02:37:54.153Z,24.22
2022-09-17T02:43:11.587Z,24.14
2022-09-17T02:48:34.834Z,24.06
2022-09-17T02:53:39.165Z,24.20
2022-09-17T02:58:45.516Z,23.72
2022-09-17T03:03:51.284Z,23.87
2022-09-17T03:08:53.072Z,23.77
2022-09-17T03:14:14.571Z,23.45
2022-09-17T03:19:12.574Z,23.17
2022-09-17T03:24:43.241Z,23.60
2022-09-17T03:29:43.659Z,23.76
2022-09-17T03:34:44.043Z,23.75
2022-09-17T03:39:43.115Z,23.80
2022-09-17T03:44:45.219Z,23.68
2022-09-17T03:49:45.721Z,23.55
2022-09-17T03:54:42.851Z,23.18
2022-09-17T03:59:39.943Z,23.42
2022-09-17T04:04:37.007Z,23.21
2022-09-17T04:09:35.345Z,23.22
2022-09-17T04:14:39.869Z,23.08
2022-09-17T04:19:38.997Z,23.07
2022-09-17T04:24:38.026Z,23.20
2022-09-17T04:29:56.405Z,23.41
2022-09-17T04:36:00.278Z,23.26
2022-09-17T04:40:58.267Z,23.82
2022-09-17T04:51:43.446Z,23.85
2022-09-17T04:56:42.439Z,23.94
2022-09-17T05:09:04.859Z,23.92
2022-09-17T05:14:56.940Z,24.17
2022-09-17T05:20:24.098Z,23.99
2022-09-17T05:25:24.309Z,23.26
2022-09-17T05:31:28.160Z,22.71
2022-09-17T05:43:19.454Z,23.26
2022-09-17T05:49:57.366Z,23.49
2022-09-17T06:01:16.886Z,23.64
2022-09-17T06:07:09.163Z,23.83
2022-09-17T06:12:08.746Z,23.96
2022-09-17T06:17:08.048Z,24.14
2022-09-17T06:22:26.995Z,23.67
2022-09-17T06:27:40.235Z,23.63
2022-09-17T06:32:57.915Z,24.10
2022-09-17T06:44:19.236Z,24.38
2022-09-17T06:50:01.055Z,24.23
2022-09-17T06:55:19.566Z,24.70
2022-09-17T07:00:53.724Z,24.81
2022-09-17T07:05:57.877Z,25.19
2022-09-17T07:11:02.857Z,25.49
2022-09-17T07:17:26.659Z,25.85
2022-09-17T07:22:27.911Z,25.98
2022-09-17T07:27:30.173Z,26.16
2022-09-17T07:38:39.211Z,25.84
2022-09-17T07:43:39.627Z,26.28
2022-09-17T07:48:44.618Z,25.80
2022-09-17T07:53:49.977Z,26.26
2022-09-17T07:59:00.353Z,26.32
2022-09-17T08:03:57.780Z,26.95
2022-09-17T08:08:58.126Z,27.40
2022-09-17T08:14:43.358Z,28.71
2022-09-17T08:19:54.967Z,28.91
2022-09-17T08:24:57.765Z,29.65
2022-09-17T08:30:02.457Z,30.06
2022-09-17T08:35:28.678Z,30.52
2022-09-17T08:40:28.679Z,30.69
2022-09-17T08:45:44.509Z,31.64
2022-09-17T08:51:12.379Z,33.93
2022-09-17T09:08:55.079Z,36.15
2022-09-17T09:14:08.161Z,36.09
2022-09-17T09:19:24.295Z,36.15
2022-09-17T09:25:08.496Z,35.52
2022-09-17T09:30:23.415Z,35.06
2022-09-17T09:36:13.062Z,35.17
2022-09-17T09:41:18.296Z,34.72
2022-09-17T09:47:04.206Z,34.94
2022-09-17T09:52:19.466Z,34.90
2022-09-17T09:57:44.361Z,34.60
2022-09-17T10:03:47.601Z,33.70
2022-09-17T10:09:13.095Z,33.95
2022-09-17T10:14:25.347Z,33.63
2022-09-17T10:20:12.829Z,33.50
2022-09-17T10:25:42.598Z,33.67
2022-09-17T10:32:14.506Z,33.22
2022-09-17T10:36:54.940Z,33.64
2022-09-17T10:42:03.747Z,33.47
2022-09-17T10:47:08.307Z,33.82
2022-09-17T10:52:59.263Z,34.09
2022-09-17T11:04:36.899Z,33.58
2022-09-17T11:10:00.046Z,33.21
2022-09-17T11:15:12.502Z,33.03
2022-09-17T11:21:07.573Z,32.93
2022-09-17T11:26:25.277Z,32.38
2022-09-17T11:31:52.437Z,32.14
2022-09-17T11:37:09.091Z,31.72
2022-09-17T11:42:13.344Z,31.40
2022-09-17T11:47:26.468Z,31.53
2022-09-17T11:52:35.555Z,31.39
2022-09-17T11:57:42.200Z,31.21
2022-09-17T12:02:50.474Z,31.60
2022-09-17T12:08:18.833Z,31.74
2022-09-17T12:13:30.881Z,31.59
2022-09-17T12:18:46.856Z,30.97
2022-09-17T12:24:23.790Z,31.17
2022-09-17T12:29:45.079Z,30.90
2022-09-17T12:34:55.316Z,30.99
2022-09-17T12:40:28.056Z,30.70
2022-09-17T12:45:37.370Z,30.51
2022-09-17T12:51:02.398Z,30.45
2022-09-17T12:56:20.077Z,30.37
2022-09-17T13:01:28.908Z,30.12
2022-09-17T13:07:12.321Z,30.20
2022-09-17T13:12:30.692Z,30.36
2022-09-17T13:17:43.412Z,30.11
2022-09-17T13:23:48.579Z,30.31
2022-09-17T13:28:49.106Z,30.52
2022-09-17T13:34:31.885Z,30.54
2022-09-17T13:40:03.380Z,30.18
2022-09-17T13:45:30.198Z,30.33
2022-09-17T13:56:48.448Z,29.93
2022-09-17T14:09:06.993Z,30.20
2022-09-17T14:14:50.649Z,30.01
2022-09-17T14:26:05.423Z,29.46
2022-09-17T14:31:59.006Z,29.08
2022-09-17T14:37:42.392Z,29.47
2022-09-17T14:42:56.276Z,28.82
2022-09-17T14:48:44.398Z,28.48
2022-09-17T14:53:50.574Z,28.87
2022-09-17T14:58:57.243Z,28.79
2022-09-17T15:04:30.344Z,28.49
2022-09-17T15:09:54.638Z,28.67
2022-09-17T15:15:25.275Z,28.16
2022-09-17T15:21:07.083Z,27.96
2022-09-17T15:26:52.579Z,28.13
2022-09-17T15:37:33.993Z,28.50
2022-09-17T15:42:37.282Z,27.72
2022-09-17T15:47:49.999Z,27.69
2022-09-17T15:53:38.007Z,27.86
2022-09-17T16:00:23.857Z,27.71
2022-09-17T16:11:45.274Z,26.95
2022-09-17T16:22:58.584Z,26.99
2022-09-17T16:28:10.069Z,26.43
2022-09-17T16:33:23.160Z,26.29
2022-09-17T16:38:29.371Z,26.41
2022-09-17T16:44:56.215Z,26.09
2022-09-17T16:49:55.875Z,26.31
2022-09-17T16:54:54.490Z,26.32
2022-09-17T16:59:54.422Z,26.15
2022-09-17T17:05:17.296Z,25.83
2022-09-17T17:10:55.606Z,25.97
2022-09-17T17:16:06.282Z,26.15
2022-09-17T17:21:14.247Z,26.49
2022-09-17T17:26:38.387Z,25.94
2022-09-17T17:31:58.083Z,26.47
2022-09-17T17:37:03.923Z,25.86
2022-09-17T17:42:02.539Z,26.00
2022-09-17T17:47:01.045Z,25.96
2022-09-17T17:52:04.119Z,25.87
2022-09-17T17:57:02.760Z,25.78
2022-09-17T18:01:59.917Z,25.56
2022-09-17T18:06:59.205Z,25.51
2022-09-17T18:11:56.221Z,25.27
2022-09-17T18:18:12.156Z,25.19
2022-09-17T18:23:09.897Z,25.64
2022-09-17T18:28:07.437Z,25.09
2022-09-17T18:33:09.516Z,25.55
2022-09-17T18:38:14.877Z,25.63
2022-09-17T18:43:19.218Z,25.48
2022-09-17T18:48:16.519Z,25.01
2022-09-17T18:53:51.351Z,25.13
2022-09-17T18:59:04.400Z,25.03
2022-09-17T19:04:45.702Z,25.21
2022-09-17T19:09:45.697Z,24.94
2022-09-17T19:14:46.958Z,25.15
2022-09-17T19:19:47.204Z,24.87
2022-09-17T19:24:45.321Z,25.18
2022-09-17T19:29:42.968Z,24.93
2022-09-17T19:34:42.090Z,25.10
2022-09-17T19:39:47.151Z,25.19
2022-09-17T19:44:44.292Z,24.91
2022-09-17T19:55:12.673Z,24.93
2022-09-17T20:00:11.362Z,25.45
2022-09-17T20:05:08.979Z,25.46
2022-09-17T20:10:20.623Z,25.32
2022-09-17T20:15:18.198Z,24.95
2022-09-17T20:20:15.345Z,25.45
2022-09-17T20:25:31.866Z,25.45
2022-09-17T20:30:50.791Z,25.37
2022-09-17T20:35:47.755Z,24.70
2022-09-17T20:40:47.675Z,24.81
2022-09-17T20:45:52.856Z,25.09
2022-09-17T20:51:00.909Z,25.13
2022-09-17T20:56:02.729Z,25.15
2022-09-17T21:01:36.805Z,24.77
2022-09-17T21:06:59.117Z,25.19
2022-09-17T21:12:06.744Z,25.17
2022-09-17T21:17:04.975Z,25.30
2022-09-17T21:22:04.557Z,25.12
2022-09-17T21:27:01.516Z,24.91
2022-09-17T21:32:01.288Z,25.03
2022-09-17T21:37:04.583Z,25.20
2022-09-17T21:42:04.108Z,24.99
2022-09-17T21:47:02.003Z,25.16
2022-09-17T21:52:00.657Z,24.70
2022-09-17T21:56:59.472Z,25.24
2022-09-17T22:01:57.125Z,25.22
2022-09-17T22:06:55.075Z,25.17
2022-09-17T22:11:54.572Z,24.78
2022-09-17T22:16:54.066Z,24.78
2022-09-17T22:21:53.205Z,24.91
2022-09-17T22:26:57.279Z,24.40
2022-09-17T22:31:58.148Z,24.63
2022-09-17T22:37:30.425Z,24.26
2022-09-17T22:42:31.473Z,24.37
2022-09-17T22:47:31.536Z,24.29
2022-09-17T22:52:48.775Z,24.16
2022-09-17T22:57:46.594Z,24.27
2022-09-17T23:02:44.546Z,24.20
2022-09-17T23:07:41.697Z,24.16
2022-09-17T23:12:38.976Z,23.57
2022-09-17T23:17:37.039Z,23.56
2022-09-17T23:22:43.988Z,23.91
2022-09-17T23:27:43.114Z,23.96
2022-09-17T23:32:41.242Z,23.40
2022-09-17T23:37:38.915Z,23.93
2022-09-17T23:42:36.133Z,23.43
2022-09-17T23:47:33.268Z,23.56
2022-09-17T23:53:15.840Z,23.73
2022-09-17T23:58:19.052Z,23.49
